Time;durP1;ratioP1;P1;durP2;ratioP2;P2;SDS_P1;SDS_P2;PMS_P1;PMS_P2;Temp;Humidity;BMP_temperature;BMP_pressure;BME280_temperature;BME280_humidity;BME280_pressure;Samples;Min_cycle;Max_cycle;Signal;HPM_P1;HPM_P2
2021/12/13 00:02:29;;;;;;;14.07;5.82;;;;;;;3.73;52.61;101018.00;5415860;32;32983;-71
2021/12/13 00:05:38;;;;;;;;;;;;;;;2.91;54.42;101024.03;5424291;32;34804;-72
2021/12/13 00:08:43;;;;;;;11.50;5.03;;;;;;;2.77;55.20;101024.81;5420736;32;34349;-71
2021/12/13 00:11:50;;;;;;;11.97;5.73;;;;;;;3.37;54.03;101020.63;5414236;32;34240;-71
2021/12/13 00:14:55;;;;;;;13.10;5.87;;;;;;;3.14;54.36;101016.25;5436914;32;33799;-70
2021/12/13 00:17:59;;;;;;;14.93;6.07;;;;;;;3.45;53.56;101021.47;5437470;32;34067;-70
2021/12/13 00:21:07;;;;;;;13.60;5.87;;;;;;;2.75;55.13;101026.56;5406440;32;33975;-70
2021/12/13 00:24:28;;;;;;;14.50;5.80;;;;;;;2.36;56.87;101028.12;5401679;32;35987;-71
2021/12/13 00:27:30;;;;;;;12.77;5.13;;;;;;;3.28;54.53;101015.41;5417854;32;35538;-71
2021/12/13 00:31:15;;;;;;;11.73;5.53;;;;;;;3.84;52.30;101009.31;5423397;32;35548;-71
2021/12/13 00:34:29;;;;;;;12.95;5.95;;;;;;;3.09;54.40;101007.63;5415830;32;33335;-71
2021/12/13 00:37:36;;;;;;;;;;;;;;;3.54;53.49;101011.06;5422554;32;34647;-70
2021/12/13 00:40:44;;;;;;;15.93;5.87;;;;;;;3.17;54.16;101013.69;5439176;32;34805;-71
2021/12/13 00:44:33;;;;;;;16.70;6.30;;;;;;;2.52;56.02;101014.38;5433349;32;34461;-69
2021/12/13 00:47:38;;;;;;;14.67;6.23;;;;;;;2.63;56.33;101017.00;5435063;32;35058;-70
2021/12/13 00:50:46;;;;;;;13.97;5.93;;;;;;;2.96;54.61;101024.00;5421020;32;34126;-72
2021/12/13 00:53:51;;;;;;;14.73;6.40;;;;;;;3.51;53.38;101018.88;5412729;32;35350;-71
2021/12/13 00:57:08;;;;;;;15.33;5.53;;;;;;;3.67;52.71;101031.03;5409343;32;35111;-71
2021/12/13 01:00:13;;;;;;;14.27;5.97;;;;;;;3.73;52.68;101032.72;5409735;32;34007;-71
2021/12/13 01:03:26;;;;;;;13.60;5.67;;;;;;;3.70;53.05;101028.41;5426324;32;34366;-71
2021/12/13 01:07:06;;;;;;;14.77;6.03;;;;;;;3.57;53.07;101023.22;5424199;32;34561;-72
2021/12/13 01:10:40;;;;;;;14.33;6.03;;;;;;;4.25;51.67;101028.31;5428279;32;34562;-71
2021/12/13 01:14:05;;;;;;;;;;;;;;;3.85;52.55;101031.84;5429227;32;33013;-71
2021/12/13 01:17:24;;;;;;;16.17;6.03;;;;;;;3.65;52.97;101032.72;5424180;32;34202;-71
2021/12/13 01:20:59;;;;;;;15.03;5.43;;;;;;;3.20;53.63;101041.38;5417711;32;34139;-71
2021/12/13 01:24:06;;;;;;;15.33;5.97;;;;;;;3.16;54.97;101047.44;5424925;32;32725;-71
2021/12/13 01:27:09;;;;;;;14.17;6.20;;;;;;;2.38;57.03;101047.16;5427051;32;34032;-71
2021/12/13 01:30:16;;;;;;;15.73;6.13;;;;;;;3.32;54.25;101045.72;5424595;32;34059;-71
2021/12/13 01:33:20;;;;;;;15.77;6.13;;;;;;;2.89;55.35;101048.22;5423376;32;35059;-71
2021/12/13 01:36:28;;;;;;;16.23;7.03;;;;;;;2.80;55.66;101041.28;5401402;32;34229;-71
2021/12/13 01:39:32;;;;;;;16.13;6.50;;;;;;;2.84;55.46;101042.19;5440801;32;32832;-71
2021/12/13 01:42:36;;;;;;;15.83;6.13;;;;;;;2.89;55.79;101040.44;5434812;32;35114;-71
2021/12/13 01:45:41;;;;;;;13.85;6.05;;;;;;;2.42;56.99;101043.75;5427878;32;35111;-71
2021/12/13 01:48:45;;;;;;;15.03;6.63;;;;;;;2.36;57.32;101038.53;5428973;32;33241;-71
2021/12/13 01:51:50;;;;;;;15.93;6.50;;;;;;;3.51;54.32;101034.47;5409012;32;32675;-71
2021/12/13 01:54:55;;;;;;;15.00;6.47;;;;;;;3.66;53.59;101044.84;5430402;32;34885;-71
2021/12/13 01:58:20;;;;;;;15.90;6.60;;;;;;;3.69;53.17;101039.69;5411812;32;33533;-71
2021/12/13 02:01:25;;;;;;;18.92;6.50;;;;;;;2.80;55.59;101050.81;5438339;32;35089;-71
2021/12/13 02:04:28;;;;;;;15.80;6.97;;;;;;;3.18;54.94;101054.37;5418037;32;33864;-71
2021/12/13 02:07:57;;;;;;;14.60;6.90;;;;;;;2.72;56.04;101054.25;5422475;32;34947;-71
2021/12/13 02:11:00;;;;;;;14.67;6.43;;;;;;;3.87;52.69;101045.75;5430171;32;34190;-70
2021/12/13 02:14:10;;;;;;;14.30;7.07;;;;;;;3.67;53.07;101049.22;5420257;32;34066;-71
2021/12/13 02:17:20;;;;;;;13.63;6.10;;;;;;;3.95;51.77;101049.19;5431825;32;34032;-71
2021/12/13 02:20:30;;;;;;;15.77;6.80;;;;;;;2.88;54.92;101049.97;5399161;32;34680;-71
2021/12/13 02:23:39;;;;;;;14.63;6.67;;;;;;;2.25;56.73;101072.19;5410689;32;34788;-71
2021/12/13 02:26:46;;;;;;;14.67;6.80;;;;;;;2.49;56.73;101057.59;5426925;32;33030;-70
2021/12/13 02:29:51;;;;;;;14.60;6.70;;;;;;;3.08;55.03;101059.53;5409535;32;34947;-70
2021/12/13 02:32:54;;;;;;;16.20;6.73;;;;;;;3.15;54.56;101062.12;5437887;32;34199;-71
2021/12/13 02:36:02;;;;;;;15.45;6.45;;;;;;;2.54;55.96;101063.69;5405448;32;35210;-71
2021/12/13 02:39:09;;;;;;;14.47;6.87;;;;;;;2.79;55.49;101060.34;5410664;32;34174;-70
2021/12/13 02:42:14;;;;;;;18.07;7.17;;;;;;;2.78;55.59;101063.78;5431393;32;34185;-71
2021/12/13 02:45:25;;;;;;;16.77;7.30;;;;;;;2.44;57.25;101067.94;5433761;32;32810;-71
2021/12/13 02:48:39;;;;;;;16.77;7.17;;;;;;;2.75;55.95;101066.38;5423186;32;33516;-71
2021/12/13 02:51:46;;;;;;;14.73;6.83;;;;;;;3.15;54.89;101062.12;5438611;32;34564;-71
2021/12/13 02:54:56;;;;;;;15.63;7.20;;;;;;;3.58;53.22;101072.59;5410723;32;34960;-71
2021/12/13 02:58:04;;;;;;;14.97;6.20;;;;;;;3.04;54.58;101066.47;5418015;32;33464;-70
2021/12/13 03:01:53;;;;;;;15.17;6.80;;;;;;;2.87;55.38;101057.75;5428600;32;32939;-70
2021/12/13 03:04:57;;;;;;;16.27;7.03;;;;;;;2.11;57.42;101066.91;5437083;32;33704;-70
2021/12/13 03:08:10;;;;;;;16.03;6.83;;;;;;;2.65;56.29;101072.41;5404386;32;32689;-70
2021/12/13 03:11:23;;;;;;;16.33;6.63;;;;;;;2.12;57.45;101081.59;5443506;32;34648;-70
2021/12/13 03:14:35;;;;;;;17.20;7.00;;;;;;;2.95;55.65;101061.22;5424299;32;35045;-71
2021/12/13 03:17:49;;;;;;;16.07;6.73;;;;;;;3.47;53.79;101050.94;5427175;32;35131;-70
2021/12/13 03:21:16;;;;;;;16.92;6.68;;;;;;;3.85;52.18;101055.25;5412163;32;33149;-70
2021/12/13 03:24:34;;;;;;;17.37;6.70;;;;;;;2.76;54.57;101049.06;5430008;32;34637;-71
2021/12/13 03:27:45;;;;;;;12.70;6.17;;;;;;;2.58;56.28;101055.94;5418578;32;34794;-72
2021/12/13 03:30:56;;;;;;;14.87;6.43;;;;;;;2.82;55.09;101043.87;5425737;32;35224;-71
2021/12/13 03:34:09;;;;;;;13.30;6.13;;;;;;;3.05;54.33;101060.41;5430071;32;35598;-70
2021/12/13 03:37:19;;;;;;;15.30;6.90;;;;;;;3.19;54.47;101053.50;5423682;32;35097;-71
2021/12/13 03:40:22;;;;;;;15.70;7.17;;;;;;;2.72;55.54;101056.84;5413652;32;35116;-71
2021/12/13 03:43:38;;;;;;;13.93;6.65;;;;;;;2.03;57.51;101070.31;5406305;32;35703;-71
2021/12/13 03:46:44;;;;;;;16.50;7.50;;;;;;;2.25;57.60;101076.50;5409665;32;33955;-70
2021/12/13 03:49:51;;;;;;;17.03;7.10;;;;;;;2.97;55.26;101064.72;5435135;32;35092;-70
2021/12/13 03:52:56;;;;;;;15.93;6.97;;;;;;;2.73;55.71;101065.50;5419126;32;35555;-71
2021/12/13 03:56:10;;;;;;;12.87;6.53;;;;;;;2.83;55.73;101066.38;5435846;32;34128;-71
2021/12/13 03:59:20;;;;;;;14.03;7.13;;;;;;;2.48;56.30;101067.13;5441676;32;33733;-71
2021/12/13 04:02:30;;;;;;;14.13;6.80;;;;;;;2.91;55.66;101070.75;5420023;32;33193;-70
2021/12/13 04:05:33;;;;;;;17.80;7.83;;;;;;;3.61;53.51;101071.75;5404173;32;34471;-71
2021/12/13 04:08:36;;;;;;;16.60;6.93;;;;;;;3.50;53.51;101061.34;5411496;32;33954;-71
2021/12/13 04:11:41;;;;;;;15.20;6.80;;;;;;;3.05;54.88;101065.59;5416125;32;33454;-70
2021/12/13 04:14:51;;;;;;;16.77;6.97;;;;;;;3.29;54.41;101082.13;5435050;32;34523;-71
2021/12/13 04:18:13;;;;;;;22.97;10.27;;;;;;;3.42;53.68;101079.53;5404040;32;34079;-72
2021/12/13 04:21:17;;;;;;;20.17;10.57;;;;;;;2.53;56.02;101082.72;5409245;32;33967;-70
2021/12/13 04:24:26;;;;;;;;;;;;;;;2.32;58.23;101089.53;5422162;32;34201;-70
2021/12/13 04:28:06;;;;;;;18.27;7.90;;;;;;;2.22;58.06;101076.50;5430312;32;33476;-70
2021/12/13 04:31:11;;;;;;;18.97;8.80;;;;;;;2.76;56.50;101094.06;5406444;32;35186;-71
2021/12/13 04:34:14;;;;;;;19.83;8.87;;;;;;;2.20;57.74;101096.38;5413341;32;33754;-71
2021/12/13 04:37:21;;;;;;;15.40;6.83;;;;;;;2.81;56.62;101096.69;5414629;32;32827;-71
2021/12/13 04:40:27;;;;;;;15.13;7.53;;;;;;;2.97;55.52;101082.91;5426163;32;33628;-72
2021/12/13 04:43:35;;;;;;;21.60;7.97;;;;;;;2.84;55.63;101083.72;5432009;32;33626;-71
2021/12/13 04:46:40;;;;;;;16.43;7.30;;;;;;;2.98;55.61;101095.88;5433461;32;34566;-70
2021/12/13 04:49:49;;;;;;;15.17;7.30;;;;;;;2.77;55.87;101079.34;5410128;32;35227;-70
2021/12/13 04:52:53;;;;;;;16.33;7.53;;;;;;;2.95;55.64;101071.63;5417974;32;34095;-70
2021/12/13 04:55:59;;;;;;;39.78;11.30;;;;;;;2.63;56.60;101087.06;5429451;32;34514;-70
2021/12/13 04:59:03;;;;;;;20.43;7.90;;;;;;;2.37;57.32;101090.41;5412268;32;34890;-70
2021/12/13 05:02:10;;;;;;;19.77;8.60;;;;;;;2.63;57.14;101085.34;5441520;32;33190;-71
2021/12/13 05:05:14;;;;;;;20.33;7.80;;;;;;;3.42;54.02;101082.13;5416805;32;34774;-70
2021/12/13 05:08:18;;;;;;;17.67;8.20;;;;;;;3.46;53.70;101080.38;5426251;32;33398;-71
2021/12/13 05:11:20;;;;;;;;;;;;;;;2.36;57.08;101098.19;5417803;32;32665;-70
2021/12/13 05:14:32;;;;;;;17.60;8.03;;;;;;;2.25;57.95;101100.72;5425902;32;34927;-71
2021/12/13 05:17:45;;;;;;;19.63;8.03;;;;;;;3.11;55.36;101104.56;5445040;32;33170;-70
2021/12/13 05:20:58;;;;;;;17.80;7.67;;;;;;;3.29;54.54;101110.69;5415464;32;34246;-71
2021/12/13 05:24:05;;;;;;;18.13;8.90;;;;;;;2.78;56.24;101120.03;5406551;32;33916;-71
2021/12/13 05:27:10;;;;;;;18.30;8.43;;;;;;;2.96;56.02;101130.47;5429751;32;35197;-71
2021/12/13 05:30:20;;;;;;;23.57;8.30;;;;;;;2.83;55.98;101139.06;5406073;32;35149;-71
2021/12/13 05:33:25;;;;;;;17.87;8.80;;;;;;;3.01;55.59;101138.28;5427181;32;33931;-70
2021/12/13 05:36:30;;;;;;;20.37;10.03;;;;;;;2.66;56.17;101145.06;5422238;32;35305;-70
2021/12/13 05:39:36;;;;;;;21.83;9.50;;;;;;;2.21;58.15;101149.97;5411072;32;33935;-70
2021/12/13 05:42:42;;;;;;;18.90;8.73;;;;;;;1.80;59.82;101153.97;5415349;32;34382;-69
2021/12/13 05:46:05;;;;;;;22.83;11.20;;;;;;;1.63;60.93;101151.22;5406938;32;33647;-71
2021/12/13 05:49:16;;;;;;;28.43;9.47;;;;;;;2.24;59.03;101152.56;5426349;32;34531;-72
2021/12/13 05:52:31;;;;;;;21.13;10.33;;;;;;;2.11;59.35;101165.44;5402977;32;33918;-70
2021/12/13 05:56:05;;;;;;;23.30;11.18;;;;;;;1.96;60.71;101156.69;5414558;32;34397;-71
2021/12/13 05:59:27;;;;;;;;;;;;;;;1.73;61.13;101159.94;5425669;32;33129;-70
2021/12/13 06:02:54;;;;;;;22.13;11.10;;;;;;;1.13;64.61;101155.87;5423675;32;33014;-71
2021/12/13 06:06:10;;;;;;;27.40;11.17;;;;;;;2.27;60.64;101157.81;5438312;32;34723;-71
2021/12/13 06:09:41;;;;;;;27.67;13.47;;;;;;;1.76;61.44;101159.97;5404862;32;34593;-71
2021/12/13 06:12:47;;;;;;;25.03;11.67;;;;;;;1.79;63.15;101169.50;5431469;32;34026;-70
2021/12/13 06:15:50;;;;;;;25.50;12.00;;;;;;;1.32;64.25;101170.75;5438018;32;35582;-70
2021/12/13 06:18:58;;;;;;;23.60;11.43;;;;;;;0.74;67.08;101174.34;5418078;32;35410;-72
2021/12/13 06:22:04;;;;;;;23.43;12.13;;;;;;;1.02;66.03;101171.25;5419201;32;34787;-71
2021/12/13 06:25:13;;;;;;;26.40;12.03;;;;;;;1.18;65.77;101179.22;5430080;32;34904;-72
2021/12/13 06:28:22;;;;;;;26.50;12.13;;;;;;;1.23;65.39;101186.22;5429113;32;34155;-71
2021/12/13 06:31:44;;;;;;;23.90;11.50;;;;;;;1.73;64.23;101179.81;5418265;32;35224;-68
2021/12/13 06:34:47;;;;;;;24.27;12.33;;;;;;;2.32;61.64;101182.94;5417854;32;34210;-69
2021/12/13 06:37:49;;;;;;;23.67;11.13;;;;;;;0.81;66.57;101196.88;5435889;32;35226;-70
2021/12/13 06:40:57;;;;;;;27.80;12.20;;;;;;;1.13;66.51;101189.53;5412884;32;36203;-69
2021/12/13 06:44:04;;;;;;;23.60;11.93;;;;;;;1.40;64.17;101186.37;5428325;32;34762;-68
2021/12/13 06:47:27;;;;;;;25.40;12.53;;;;;;;1.94;63.60;101186.94;5431819;32;34281;-68
2021/12/13 06:50:34;;;;;;;24.10;11.80;;;;;;;2.01;62.58;101183.53;5425561;32;34030;-66
2021/12/13 06:53:37;;;;;;;30.13;12.47;;;;;;;1.59;64.28;101193.50;5422625;32;34007;-68
2021/12/13 06:56:42;;;;;;;27.10;13.02;;;;;;;1.23;64.77;101200.88;5413051;32;35270;-67
2021/12/13 06:59:56;;;;;;;26.70;13.70;;;;;;;2.06;63.22;101205.16;5397663;32;34107;-67
2021/12/13 07:03:03;;;;;;;26.73;12.85;;;;;;;2.29;61.93;101198.44;5412496;32;34663;-66
2021/12/13 07:06:05;;;;;;;26.17;13.17;;;;;;;1.53;64.79;101197.75;5401979;32;34404;-62
2021/12/13 07:09:10;;;;;;;31.30;12.70;;;;;;;2.25;62.25;101196.69;5414133;32;35394;-71
2021/12/13 07:12:18;;;;;;;26.50;13.23;;;;;;;1.92;63.33;101201.59;5413145;32;34130;-69
2021/12/13 07:15:28;;;;;;;26.20;12.70;;;;;;;1.19;65.64;101201.69;5434070;32;33259;-63
2021/12/13 07:18:58;;;;;;;24.40;11.93;;;;;;;2.77;61.01;101193.56;5416779;32;35434;-74
2021/12/13 07:22:05;;;;;;;28.43;13.10;;;;;;;3.18;58.98;101193.78;5403011;32;33870;-73
2021/12/13 07:25:14;;;;;;;24.07;12.10;;;;;;;2.86;59.01;101197.09;5416721;32;33944;-72
2021/12/13 07:28:37;;;;;;;27.60;11.67;;;;;;;3.06;59.41;101198.91;5399540;32;33494;-72
2021/12/13 07:31:44;;;;;;;25.63;12.70;;;;;;;3.26;58.87;101190.34;5399533;32;33975;-82
2021/12/13 07:34:50;;;;;;;23.20;10.97;;;;;;;3.38;58.01;101197.31;5400833;32;33397;-68
2021/12/13 07:38:14;;;;;;;27.80;12.00;;;;;;;2.38;61.27;101219.28;5426893;32;34036;-67
2021/12/13 07:41:19;;;;;;;25.83;13.03;;;;;;;2.91;60.54;101212.72;5405670;32;33887;-69
2021/12/13 07:44:41;;;;;;;26.47;12.40;;;;;;;3.29;59.33;101209.41;5410946;32;34136;-73
2021/12/13 07:47:45;;;;;;;31.37;13.07;;;;;;;3.49;58.61;101205.16;5400386;32;35379;-73
2021/12/13 07:51:28;;;;;;;27.43;13.20;;;;;;;3.69;57.75;101208.66;5401709;32;32933;-72
2021/12/13 07:54:42;;;;;;;24.83;12.63;;;;;;;4.21;56.11;101220.88;5408642;32;34163;-71
2021/12/13 07:57:45;;;;;;;;;;;;;;;3.26;58.20;101233.63;5416334;32;34154;-74
2021/12/13 08:00:50;;;;;;;26.07;13.00;;;;;;;2.68;60.96;101233.31;5417920;32;34403;-76
2021/12/13 08:04:10;;;;;;;24.63;13.20;;;;;;;2.54;62.13;101230.63;5409907;32;34104;-76
2021/12/13 08:07:21;;;;;;;27.30;13.60;;;;;;;2.55;62.41;101228.91;5420173;32;35431;-71
2021/12/13 08:10:28;;;;;;;25.87;13.07;;;;;;;3.01;60.10;101224.84;5432181;32;35374;-77
2021/12/13 08:13:34;;;;;;;27.73;13.83;;;;;;;2.50;63.07;101228.00;5408639;32;34276;-75
2021/12/13 08:16:45;;;;;;;28.58;13.93;;;;;;;2.41;63.53;101241.78;5409864;32;32913;-73
2021/12/13 08:20:04;;;;;;;30.83;15.17;;;;;;;1.81;65.21;101246.44;5410732;32;34092;-72
2021/12/13 08:23:16;;;;;;;27.80;13.93;;;;;;;1.67;65.99;101252.31;5416192;32;33697;-69
2021/12/13 08:26:26;;;;;;;30.97;13.70;;;;;;;2.66;62.58;101251.50;5406132;32;34367;-69
2021/12/13 08:29:32;;;;;;;25.00;13.33;;;;;;;3.50;59.95;101233.75;5424575;32;34059;-70
2021/12/13 08:32:34;;;;;;;27.43;14.30;;;;;;;2.05;63.99;101240.59;5418374;32;34679;-69
2021/12/13 08:36:12;;;;;;;27.27;13.90;;;;;;;2.15;64.39;101252.81;5429418;32;34074;-75
2021/12/13 08:39:26;;;;;;;28.90;13.00;;;;;;;2.40;63.76;101255.62;5434226;32;35440;-78
2021/12/13 08:42:33;;;;;;;28.53;14.00;;;;;;;3.08;61.61;101264.72;5396573;32;35143;-71
2021/12/13 08:45:40;;;;;;;31.10;13.53;;;;;;;4.00;59.00;101255.53;5417199;32;35143;-64
2021/12/13 08:48:49;;;;;;;30.40;13.77;;;;;;;3.91;59.09;101255.50;5428872;32;35152;-68
2021/12/13 08:52:10;;;;;;;30.27;14.37;;;;;;;3.49;60.38;101263.19;5426845;32;33532;-68
2021/12/13 08:55:12;;;;;;;28.93;13.40;;;;;;;3.57;59.63;101265.81;5432981;32;35286;-68
2021/12/13 08:58:17;;;;;;;26.93;14.00;;;;;;;3.62;59.95;101268.44;5414641;32;35385;-67
2021/12/13 09:01:20;;;;;;;29.53;14.97;;;;;;;4.31;58.26;101257.28;5418968;32;34536;-68
2021/12/13 09:04:30;;;;;;;30.75;14.80;;;;;;;5.24;54.81;101255.44;5413491;32;578477;-68
2021/12/13 09:07:32;;;;;;;28.73;14.33;;;;;;;5.01;55.81;101245.06;5424784;32;34130;-67
2021/12/13 09:10:43;;;;;;;30.37;13.20;;;;;;;5.14;55.03;101252.84;5418888;32;33113;-70
2021/12/13 09:13:49;;;;;;;27.80;13.83;;;;;;;4.28;57.16;101254.69;5424650;32;34135;-69
2021/12/13 09:17:16;;;;;;;31.57;14.10;;;;;;;4.53;57.62;101254.69;5431238;32;34506;-64
2021/12/13 09:20:34;;;;;;;26.17;12.37;;;;;;;4.45;56.76;101262.50;5414545;32;35177;-64
2021/12/13 09:23:55;;;;;;;27.50;13.47;;;;;;;4.60;56.19;101265.09;5414559;32;34322;-73
2021/12/13 09:27:08;;;;;;;27.97;13.53;;;;;;;4.35;57.02;101252.97;5398495;32;34556;-78
2021/12/13 09:30:17;;;;;;;27.00;13.17;;;;;;;5.18;55.41;101243.28;5404536;32;35360;-80
2021/12/13 09:33:22;;;;;;;24.50;12.80;;;;;;;5.98;52.86;101242.03;5419109;32;36107;-73
2021/12/13 09:36:30;;;;;;;23.70;12.67;;;;;;;5.44;53.03;101241.44;5410433;32;33949;-73
2021/12/13 09:39:33;;;;;;;26.87;12.47;;;;;;;5.24;53.60;101242.41;5429021;32;33929;-71
2021/12/13 09:42:53;;;;;;;26.10;12.93;;;;;;;4.92;55.01;101238.16;5434496;32;33936;-71
2021/12/13 09:46:00;;;;;;;27.53;12.67;;;;;;;4.97;55.23;101232.94;5423265;32;33880;-70
2021/12/13 09:49:11;;;;;;;30.23;13.07;;;;;;;5.71;53.16;101229.13;5423704;32;35236;-74
2021/12/13 09:52:33;;;;;;;25.60;12.47;;;;;;;5.84;52.70;101219.47;5415820;32;34118;-68
2021/12/13 09:55:45;;;;;;;25.52;11.57;;;;;;;6.12;51.98;101228.91;5423962;32;34024;-68
2021/12/13 09:59:12;;;;;;;26.13;12.07;;;;;;;4.23;57.01;101233.00;5424869;32;35270;-68
2021/12/13 10:02:40;;;;;;;25.53;11.90;;;;;;;4.75;55.67;101222.53;5428275;32;34098;-73
2021/12/13 10:05:47;;;;;;;30.37;12.80;;;;;;;4.67;55.44;101219.09;5398160;32;34326;-70
2021/12/13 10:08:53;;;;;;;28.17;12.43;;;;;;;5.34;54.08;101208.44;5427104;32;33479;-70
2021/12/13 10:11:55;;;;;;;34.10;13.23;;;;;;;5.12;54.39;101206.81;5408272;32;34399;-73
2021/12/13 10:15:07;;;;;;;30.33;12.63;;;;;;;6.04;52.19;101206.34;5408034;32;35080;-72
2021/12/13 10:18:15;;;;;;;25.63;13.17;;;;;;;6.58;50.76;101209.38;5416018;32;34743;-71
2021/12/13 10:21:30;;;;;;;29.73;12.77;;;;;;;6.37;51.02;101205.19;5413739;32;35184;-70
2021/12/13 10:24:37;;;;;;;35.47;13.40;;;;;;;6.42;51.06;101212.09;5406624;32;33988;-70
2021/12/13 10:27:40;;;;;;;25.20;11.43;;;;;;;6.72;50.25;101212.72;5429392;32;33980;-75
2021/12/13 10:30:52;;;;;;;30.08;12.88;;;;;;;7.23;48.55;101205.16;5433325;32;35071;-72
2021/12/13 10:33:58;;;;;;;59.13;33.90;;;;;;;6.91;50.06;101209.03;5414875;32;35864;-67
2021/12/13 10:37:38;;;;;;;28.97;14.80;;;;;;;6.36;51.03;101204.31;5428512;32;34082;-68
2021/12/13 10:40:54;;;;;;;26.77;11.73;;;;;;;7.33;48.97;101193.69;5410666;32;34140;-76
2021/12/13 10:44:00;;;;;;;27.50;11.40;;;;;;;7.21;48.43;101193.84;5410394;32;34994;-71
2021/12/13 10:47:09;;;;;;;23.17;11.13;;;;;;;7.64;46.98;101190.66;5421881;32;35895;-76
2021/12/13 10:50:28;;;;;;;22.53;9.73;;;;;;;6.51;48.12;101201.59;5405441;32;34729;-70
2021/12/13 10:53:36;;;;;;;21.00;10.07;;;;;;;6.37;49.09;101198.22;5431552;32;34160;-76
2021/12/13 10:56:56;;;;;;;20.88;9.85;;;;;;;5.70;50.59;101188.28;5385029;32;33289;-74
2021/12/13 11:00:00;;;;;;;23.27;9.33;;;;;;;5.56;51.52;101193.56;5373363;32;33931;-74
2021/12/13 11:03:08;;;;;;;22.37;9.68;;;;;;;5.76;51.34;101189.97;5378987;32;34547;-77
2021/12/13 11:06:13;;;;;;;21.77;10.90;;;;;;;5.69;52.07;101189.16;5373345;32;34392;-69
2021/12/13 11:09:20;;;;;;;27.57;11.93;;;;;;;5.67;51.47;101188.31;5365577;32;34029;-70
2021/12/13 11:12:32;;;;;;;21.97;10.00;;;;;;;6.00;51.20;101178.53;5377313;32;35740;-74
2021/12/13 11:15:38;;;;;;;24.57;11.13;;;;;;;5.95;50.91;101181.19;5382520;32;32951;-66
2021/12/13 11:18:42;;;;;;;20.03;9.73;;;;;;;6.33;50.25;101185.22;5380839;32;35288;-69
2021/12/13 11:21:48;;;;;;;23.30;10.53;;;;;;;6.07;50.73;101172.41;5376448;32;34019;-74
2021/12/13 11:24:55;;;;;;;22.17;10.77;;;;;;;6.25;50.38;101180.06;5369122;32;33678;-71
2021/12/13 11:27:58;;;;;;;24.13;11.03;;;;;;;7.17;47.82;101173.88;5416584;32;35169;-71
2021/12/13 11:31:09;;;;;;;26.03;10.60;;;;;;;7.92;46.39;101175.41;5429037;32;33891;-71
2021/12/13 11:34:53;;;;;;;27.57;11.00;;;;;;;7.32;47.37;101178.88;5436435;32;33973;-72
2021/12/13 11:37:56;;;;;;;;;;;;;;;6.39;49.08;101193.88;5383384;32;33943;-69
2021/12/13 11:41:20;;;;;;;26.80;10.40;;;;;;;7.62;46.37;101179.37;5429758;32;34286;-72
2021/12/13 11:44:29;;;;;;;23.60;10.30;;;;;;;8.03;45.34;101174.34;5431140;32;35137;-69
2021/12/13 11:48:23;;;;;;;22.70;9.80;;;;;;;7.41;46.23;101177.94;5426538;32;32662;-67
2021/12/13 11:51:59;;;;;;;24.03;9.77;;;;;;;7.15;47.26;101183.47;5374827;32;34036;-67
2021/12/13 11:55:39;;;;;;;22.43;10.40;;;;;;;7.62;45.75;101175.00;5434944;32;34217;-68
2021/12/13 11:58:59;;;;;;;40.07;17.07;;;;;;;8.19;44.50;101174.12;5415496;32;34870;-69
2021/12/13 12:02:06;;;;;;;28.03;10.07;;;;;;;8.67;43.85;101173.28;5400135;32;33827;-75
2021/12/13 12:05:11;;;;;;;18.90;10.07;;;;;;;9.70;40.87;101165.87;5433302;32;34284;-69
2021/12/13 12:08:35;;;;;;;26.17;11.10;;;;;;;11.66;37.38;101159.69;5426227;32;33401;-66
2021/12/13 12:11:56;;;;;;;;;;;;;;;13.08;34.50;101150.50;5432175;32;35242;-68
2021/12/13 12:15:01;;;;;;;17.40;9.17;;;;;;;12.89;34.16;101152.94;5422276;32;34285;-69
2021/12/13 12:18:08;;;;;;;18.47;9.50;;;;;;;11.93;35.42;101159.75;5402235;32;35978;-69
2021/12/13 12:21:50;;;;;;;18.60;9.07;;;;;;;12.18;34.86;101160.69;5420398;32;33931;-70
2021/12/13 12:24:55;;;;;;;22.13;9.63;;;;;;;13.50;32.74;101158.56;5427055;32;33991;-70
2021/12/13 12:28:03;;;;;;;18.77;9.17;;;;;;;10.85;37.04;101169.13;5406381;32;32865;-79
2021/12/13 12:31:06;;;;;;;21.53;8.90;;;;;;;9.36;40.60;101174.50;5420184;32;33226;-80
2021/12/13 12:34:13;;;;;;;18.93;10.03;;;;;;;11.43;36.86;101166.56;5405069;32;34039;-75
2021/12/13 12:37:50;;;;;;;23.80;9.87;;;;;;;11.36;36.63;101164.12;5422326;32;34099;-75
2021/12/13 12:40:59;;;;;;;23.67;10.00;;;;;;;13.40;32.81;101157.22;5425037;32;34019;-73
2021/12/13 12:44:19;;;;;;;24.17;9.90;;;;;;;10.10;38.94;101170.19;5431274;32;34017;-69
2021/12/13 12:47:33;;;;;;;19.70;8.93;;;;;;;9.50;40.66;101171.59;5435068;32;34116;-73
2021/12/13 12:50:57;;;;;;;25.47;10.47;;;;;;;8.35;42.89;101180.81;5430517;32;34000;-80
2021/12/13 12:54:05;;;;;;;26.60;9.70;;;;;;;8.10;43.65;101170.75;5409715;32;34116;-82
2021/12/13 12:57:11;;;;;;;26.27;11.20;;;;;;;10.12;39.83;101160.50;5422079;32;34102;-73
2021/12/13 13:00:14;;;;;;;28.40;10.57;;;;;;;8.98;42.48;101164.81;5412109;32;34125;-68
2021/12/13 13:03:26;;;;;;;21.93;10.27;;;;;;;7.71;45.42;101167.00;5434078;32;34340;-71
2021/12/13 13:06:29;;;;;;;24.37;9.60;;;;;;;7.72;45.27;101173.09;5410321;32;35244;-72
2021/12/13 13:09:54;;;;;;;20.10;9.07;;;;;;;7.14;47.24;101169.53;5408012;32;34847;-74
2021/12/13 13:13:07;;;;;;;21.77;9.67;;;;;;;6.61;48.00;101183.22;5412385;32;35098;-75
2021/12/13 13:16:13;;;;;;;30.30;10.50;;;;;;;7.05;47.87;101182.72;5401525;32;35103;-75
2021/12/13 13:19:29;;;;;;;18.10;9.10;;;;;;;7.65;46.36;101188.03;5409674;32;34736;-76
2021/12/13 13:22:35;;;;;;;27.97;10.33;;;;;;;8.09;45.18;101189.97;5407136;32;33996;-72
2021/12/13 13:26:05;;;;;;;27.07;10.07;;;;;;;8.06;45.26;101194.41;5431858;32;35603;-69
2021/12/13 13:29:15;;;;;;;23.40;9.57;;;;;;;7.39;46.42;101196.22;5406559;32;35202;-65
2021/12/13 13:32:17;;;;;;;53.17;12.43;;;;;;;7.85;45.63;101192.97;5423186;32;34355;-65
2021/12/13 13:35:20;;;;;;;23.33;9.43;;;;;;;7.63;46.23;101202.03;5434189;32;34019;-71
2021/12/13 13:38:36;;;;;;;24.03;9.90;;;;;;;7.73;45.77;101201.88;5407048;32;34689;-67
2021/12/13 13:41:43;;;;;;;22.37;9.67;;;;;;;6.77;48.24;101221.38;5419102;32;32923;-80
2021/12/13 13:45:03;;;;;;;20.77;9.13;;;;;;;7.24;46.89;101210.37;5427794;32;34266;-73
2021/12/13 13:48:12;;;;;;;23.40;9.63;;;;;;;7.31;46.91;101216.37;5427466;32;32910;-72
2021/12/13 13:51:17;;;;;;;16.63;8.50;;;;;;;7.29;47.07;101218.16;5429092;32;35404;-64
2021/12/13 13:54:21;;;;;;;25.73;12.17;;;;;;;6.63;47.92;101223.22;5413861;32;34857;-71
2021/12/13 13:57:26;;;;;;;19.27;8.75;;;;;;;6.91;47.70;101216.84;5408272;32;35102;-70
2021/12/13 14:00:39;;;;;;;19.57;8.70;;;;;;;6.78;47.55;101221.34;5414120;32;35479;-71
2021/12/13 14:03:46;;;;;;;20.12;8.45;;;;;;;6.65;48.09;101226.72;5418674;32;34034;-73
2021/12/13 14:06:55;;;;;;;24.20;8.47;;;;;;;6.66;48.07;101229.31;5418204;32;34628;-79
2021/12/13 14:10:03;;;;;;;25.40;9.63;;;;;;;6.75;47.54;101230.94;5429651;32;36298;-75
2021/12/13 14:13:07;;;;;;;20.17;8.50;;;;;;;7.08;46.95;101229.72;5402560;32;34857;-72
2021/12/13 14:16:20;;;;;;;18.40;7.80;;;;;;;7.22;46.70;101220.00;5414296;32;33968;-70
2021/12/13 14:19:38;;;;;;;23.80;8.23;;;;;;;7.40;46.17;101213.66;5427859;32;34014;-76
2021/12/13 14:22:43;;;;;;;23.20;8.70;;;;;;;6.82;47.54;101224.78;5404854;32;35467;-70
2021/12/13 14:25:55;;;;;;;19.37;7.60;;;;;;;7.50;46.16;101220.50;5429902;32;34089;-71
2021/12/13 14:29:05;;;;;;;19.03;9.27;;;;;;;6.47;48.04;101226.00;5433344;32;36006;-76
2021/12/13 14:32:10;;;;;;;28.83;8.73;;;;;;;5.95;48.83;101233.37;5399967;32;34918;-71
2021/12/13 14:35:15;;;;;;;19.03;8.00;;;;;;;6.55;47.74;101225.06;5430188;32;34546;-70
2021/12/13 14:38:21;;;;;;;22.20;8.53;;;;;;;6.04;48.56;101235.91;5414688;32;33992;-73
2021/12/13 14:41:32;;;;;;;23.30;7.83;;;;;;;6.21;48.40;101236.66;5404121;32;35453;-74
2021/12/13 14:44:52;;;;;;;17.43;7.83;;;;;;;5.94;48.82;101242.94;5437433;32;34841;-70
2021/12/13 14:47:59;;;;;;;20.87;7.97;;;;;;;6.81;47.09;101243.09;5431123;32;33931;-65
2021/12/13 14:51:07;;;;;;;25.80;9.38;;;;;;;6.80;46.88;101237.00;5420899;32;34921;-69